EDT,Max TemperatureF,Mean TemperatureF,Min TemperatureF,Max Dew PointF,MeanDew PointF,Min DewpointF,Max Humidity, Mean Humidity, Min Humidity, Max Sea Level PressureIn, Mean Sea Level PressureIn, Min Sea Level PressureIn, Max VisibilityMiles, Mean VisibilityMiles, Min VisibilityMiles, Max Wind SpeedMPH, Mean Wind SpeedMPH, Max Gust SpeedMPH,PrecipitationIn, CloudCover, Events, WindDirDegrees
2013-7-1,87,79,71,75,73,70,94,85,58,30.01,29.91,29.82,10,8,2,12,3,23,0.58,5,Rain-Thunderstorm,194
2013-7-2,80,78,75,75,73,72,94,89,79,30.16,30.09,30.02,10,8,0,8,2,,1.18,5,Rain-Thunderstorm,169
2013-7-3,84,80,75,77,74,72,94,87,70,30.24,30.18,30.13,10,7,0,10,1,18,2.59,5,Rain-Thunderstorm,169
2013-7-4,87,80,73,75,74,72,94,83,58,30.24,30.21,30.17,10,7,1,15,3,26,0.19,3,Rain-Thunderstorm,150
2013-7-5,89,82,75,77,74,72,94,83,58,30.24,30.21,30.17,10,8,2,12,2,20,0.19,2,Rain-Thunderstorm,154
2013-7-6,87,80,73,77,73,72,94,81,62,30.24,30.19,30.14,10,8,3,12,2,18,0.04,3,Rain,142
2013-7-7,89,80,71,75,71,70,94,77,52,30.20,30.16,30.11,10,8,5,10,2,17,0.00,1,,165
2013-7-8,89,80,71,73,72,70,94,78,58,30.20,30.17,30.13,10,8,5,9,1,,0.00,2,,188
2013-7-9,91,81,71,77,73,70,94,80,55,30.20,30.16,30.10,10,9,5,10,2,,0.00,2,Thunderstorm,188
2013-7-10,91,82,73,77,75,73,100,81,59,30.14,30.07,29.98,10,10,7,10,2,,0.00,1,Rain,182
2013-7-11,91,82,73,79,76,73,100,84,59,30.02,29.96,29.89,10,10,5,10,3,,0.02,4,Rain-Thunderstorm,214
2013-7-12,80,76,73,77,75,72,100,95,84,29.98,29.93,29.89,10,9,2,6,0,,0.18,6,Rain-Thunderstorm,136
2013-7-13,84,78,73,79,76,73,100,95,84,30.09,30.01,29.94,10,8,0,9,2,,1.94,5,Rain-Thunderstorm,52
2013-7-14,87,80,73,79,76,73,100,86,66,30.23,30.16,30.09,10,9,4,13,5,22,0.15,4,Rain,107
2013-7-15,89,82,75,79,77,75,100,87,66,30.26,30.23,30.20,10,8,3,15,5,21,0.03,3,Rain-Thunderstorm,82
2013-7-16,89,81,73,81,76,73,100,88,66,30.29,30.25,30.21,10,8,3,8,1,,0.07,2,Rain,36
2013-7-17,95,83,71,79,75,72,100,87,49,30.23,30.19,30.09,10,8,1,18,1,25,1.21,1,Rain-Thunderstorm,9
2013-7-18,91,81,71,79,76,72,100,91,62,30.18,30.13,30.08,10,8,4,12,1,,0.00,2,Rain-Thunderstorm,212
2013-7-19,89,80,71,77,75,72,100,84,59,30.14,30.09,30.02,10,9,5,12,3,17,0.02,2,Thunderstorm,194
2013-7-20,89,82,75,77,75,73,100,84,62,30.10,30.05,29.99,10,9,5,15,6,21,0.00,4,,210
2013-7-21,87,80,73,79,76,73,100,91,70,30.06,30.01,29.95,10,9,1,15,5,22,0.25,6,Rain-Thunderstorm,221
2013-7-22,89,81,73,77,75,73,100,84,62,30.02,29.96,29.91,10,9,7,13,6,18,0.00,4,,236
2013-7-23,89,83,77,77,75,73,94,82,62,29.95,29.88,29.81,10,10,7,12,7,17,0.00,4,,239
2013-7-24,86,80,73,77,76,72,100,89,74,29.84,29.81,29.77,10,8,5,8,3,,0.00,1,Rain,237
2013-7-25,91,82,73,77,75,73,100,83,55,29.99,29.88,29.78,10,8,4,12,2,,0.00,1,,2
2013-7-26,89,81,73,79,75,72,100,88,59,30.07,30.03,29.98,10,8,2,8,3,12,0.14,3,Rain,79
2013-7-27,87,80,73,79,76,72,100,90,70,30.05,29.98,29.92,10,7,3,21,1,26,0.00,3,Rain-Thunderstorm,153
2013-7-28,87,81,75,79,76,73,100,89,66,30.03,29.98,29.93,10,8,5,6,1,,0.00,2,Rain-Thunderstorm,194
2013-7-29,93,83,73,79,76,73,100,92,56,30.16,30.08,30.02,10,6,2,17,1,22,0.57,3,Rain-Thunderstorm,192
2013-7-30,89,81,73,79,76,73,100,88,62,30.18,30.15,30.11,10,7,0,8,1,,0.00,2,Fog,40
2013-7-31,87,81,75,81,76,73,100,94,79,30.14,30.09,30.03,10,6,1,8,1,,0.45,4,Rain-Thunderstorm,156